sensor_id;sensor_type;location;lat;lon;timestamp;P1;durP1;ratioP1;P2;durP2;ratioP2
48524;SDS011;34316;51.514;-0.178;2022-08-25T00:01:29;17.92;;;8.98;;
48524;SDS011;34316;51.514;-0.178;2022-08-25T00:03:33;25.98;;;10.43;;
48524;SDS011;34316;51.514;-0.178;2022-08-25T00:05:39;22.92;;;8.70;;
48524;SDS011;34316;51.514;-0.178;2022-08-25T00:07:41;18.88;;;9.02;;
48524;SDS011;34316;51.514;-0.178;2022-08-25T00:09:43;18.17;;;9.60;;
48524;SDS011;34316;51.514;-0.178;2022-08-25T00:11:49;21.98;;;9.32;;
48524;SDS011;34316;51.514;-0.178;2022-08-25T00:13:54;21.70;;;10.38;;
48524;SDS011;34316;51.514;-0.178;2022-08-25T00:16:01;21.33;;;10.27;;
48524;SDS011;34316;51.514;-0.178;2022-08-25T00:18:03;18.52;;;9.88;;
48524;SDS011;34316;51.514;-0.178;2022-08-25T00:20:20;22.67;;;9.45;;
48524;SDS011;34316;51.514;-0.178;2022-08-25T00:22:22;22.08;;;8.77;;
48524;SDS011;34316;51.514;-0.178;2022-08-25T00:24:27;20.20;;;8.48;;
48524;SDS011;34316;51.514;-0.178;2022-08-25T00:26:32;21.42;;;8.85;;
48524;SDS011;34316;51.514;-0.178;2022-08-25T00:28:34;18.67;;;8.65;;
48524;SDS011;34316;51.514;-0.178;2022-08-25T00:30:37;23.13;;;10.18;;
48524;SDS011;34316;51.514;-0.178;2022-08-25T00:32:40;18.13;;;9.48;;
48524;SDS011;34316;51.514;-0.178;2022-08-25T00:35:00;21.20;;;9.30;;
48524;SDS011;34316;51.514;-0.178;2022-08-25T00:37:36;18.15;;;9.95;;
48524;SDS011;34316;51.514;-0.178;2022-08-25T00:40:53;18.08;;;9.13;;
48524;SDS011;34316;51.514;-0.178;2022-08-25T00:43:20;22.02;;;9.55;;
48524;SDS011;34316;51.514;-0.178;2022-08-25T00:45:34;26.83;;;9.15;;
48524;SDS011;34316;51.514;-0.178;2022-08-25T00:47:56;15.40;;;9.10;;
48524;SDS011;34316;51.514;-0.178;2022-08-25T00:52:05;17.83;;;9.23;;
48524;SDS011;34316;51.514;-0.178;2022-08-25T00:54:10;17.58;;;9.35;;
48524;SDS011;34316;51.514;-0.178;2022-08-25T00:56:16;20.85;;;10.90;;
48524;SDS011;34316;51.514;-0.178;2022-08-25T00:58:22;25.08;;;9.13;;
48524;SDS011;34316;51.514;-0.178;2022-08-25T01:00:31;19.25;;;8.65;;
48524;SDS011;34316;51.514;-0.178;2022-08-25T01:02:42;18.65;;;8.80;;
48524;SDS011;34316;51.514;-0.178;2022-08-25T01:04:45;20.00;;;8.88;;
48524;SDS011;34316;51.514;-0.178;2022-08-25T01:06:49;20.58;;;9.43;;
48524;SDS011;34316;51.514;-0.178;2022-08-25T01:08:52;27.08;;;9.45;;
48524;SDS011;34316;51.514;-0.178;2022-08-25T01:10:55;14.70;;;8.38;;
48524;SDS011;34316;51.514;-0.178;2022-08-25T01:13:05;19.58;;;9.32;;
48524;SDS011;34316;51.514;-0.178;2022-08-25T01:15:16;22.52;;;8.85;;
48524;SDS011;34316;51.514;-0.178;2022-08-25T01:17:19;29.50;;;9.35;;
48524;SDS011;34316;51.514;-0.178;2022-08-25T01:19:22;20.08;;;9.63;;
48524;SDS011;34316;51.514;-0.178;2022-08-25T01:21:24;22.30;;;9.35;;
48524;SDS011;34316;51.514;-0.178;2022-08-25T01:27:42;20.90;;;10.60;;
48524;SDS011;34316;51.514;-0.178;2022-08-25T01:29:44;27.75;;;11.20;;
48524;SDS011;34316;51.514;-0.178;2022-08-25T01:31:47;22.67;;;10.43;;
48524;SDS011;34316;51.514;-0.178;2022-08-25T01:33:50;23.42;;;10.13;;
48524;SDS011;34316;51.514;-0.178;2022-08-25T01:35:52;21.20;;;10.27;;
48524;SDS011;34316;51.514;-0.178;2022-08-25T01:37:55;21.17;;;10.82;;
48524;SDS011;34316;51.514;-0.178;2022-08-25T01:39:57;20.95;;;9.75;;
48524;SDS011;34316;51.514;-0.178;2022-08-25T01:44:07;21.70;;;9.57;;
48524;SDS011;34316;51.514;-0.178;2022-08-25T01:46:16;20.42;;;10.02;;
48524;SDS011;34316;51.514;-0.178;2022-08-25T01:48:18;18.90;;;9.57;;
48524;SDS011;34316;51.514;-0.178;2022-08-25T01:50:20;22.02;;;9.55;;
48524;SDS011;34316;51.514;-0.178;2022-08-25T01:52:31;18.88;;;9.52;;
48524;SDS011;34316;51.514;-0.178;2022-08-25T01:54:34;22.23;;;9.70;;
48524;SDS011;34316;51.514;-0.178;2022-08-25T01:56:36;18.48;;;9.07;;
48524;SDS011;34316;51.514;-0.178;2022-08-25T01:58:48;23.73;;;8.93;;
48524;SDS011;34316;51.514;-0.178;2022-08-25T02:00:50;22.33;;;9.75;;
48524;SDS011;34316;51.514;-0.178;2022-08-25T02:02:54;24.30;;;9.50;;
48524;SDS011;34316;51.514;-0.178;2022-08-25T02:04:56;18.67;;;9.10;;
48524;SDS011;34316;51.514;-0.178;2022-08-25T02:07:01;22.77;;;9.27;;
48524;SDS011;34316;51.514;-0.178;2022-08-25T02:09:05;20.50;;;9.68;;
48524;SDS011;34316;51.514;-0.178;2022-08-25T02:11:10;22.17;;;8.98;;
48524;SDS011;34316;51.514;-0.178;2022-08-25T02:13:14;17.38;;;8.57;;
48524;SDS011;34316;51.514;-0.178;2022-08-25T02:15:16;25.40;;;9.05;;
48524;SDS011;34316;51.514;-0.178;2022-08-25T02:17:18;19.35;;;8.77;;
48524;SDS011;34316;51.514;-0.178;2022-08-25T02:19:20;26.83;;;8.57;;
48524;SDS011;34316;51.514;-0.178;2022-08-25T02:21:23;21.00;;;9.07;;
48524;SDS011;34316;51.514;-0.178;2022-08-25T02:23:26;21.95;;;9.15;;
48524;SDS011;34316;51.514;-0.178;2022-08-25T02:25:28;15.77;;;9.05;;
48524;SDS011;34316;51.514;-0.178;2022-08-25T02:27:30;20.13;;;9.23;;
48524;SDS011;34316;51.514;-0.178;2022-08-25T02:29:32;28.10;;;9.45;;
48524;SDS011;34316;51.514;-0.178;2022-08-25T02:31:34;13.52;;;7.90;;
48524;SDS011;34316;51.514;-0.178;2022-08-25T02:33:36;17.80;;;8.15;;
48524;SDS011;34316;51.514;-0.178;2022-08-25T02:35:38;21.00;;;8.82;;
48524;SDS011;34316;51.514;-0.178;2022-08-25T02:37:40;22.05;;;8.15;;
48524;SDS011;34316;51.514;-0.178;2022-08-25T02:39:42;24.27;;;8.20;;
48524;SDS011;34316;51.514;-0.178;2022-08-25T02:41:45;24.58;;;8.85;;
48524;SDS011;34316;51.514;-0.178;2022-08-25T02:43:47;24.15;;;8.15;;
48524;SDS011;34316;51.514;-0.178;2022-08-25T02:45:53;14.70;;;8.18;;
48524;SDS011;34316;51.514;-0.178;2022-08-25T02:47:56;13.85;;;8.15;;
48524;SDS011;34316;51.514;-0.178;2022-08-25T02:49:59;27.48;;;9.07;;
48524;SDS011;34316;51.514;-0.178;2022-08-25T02:52:01;20.05;;;8.10;;
48524;SDS011;34316;51.514;-0.178;2022-08-25T02:54:04;16.38;;;8.15;;
48524;SDS011;34316;51.514;-0.178;2022-08-25T02:56:07;14.68;;;7.80;;
48524;SDS011;34316;51.514;-0.178;2022-08-25T02:58:11;21.33;;;8.15;;
48524;SDS011;34316;51.514;-0.178;2022-08-25T03:00:13;18.95;;;7.68;;
48524;SDS011;34316;51.514;-0.178;2022-08-25T03:02:15;17.63;;;7.75;;
48524;SDS011;34316;51.514;-0.178;2022-08-25T03:04:18;19.10;;;8.63;;
48524;SDS011;34316;51.514;-0.178;2022-08-25T03:06:20;23.23;;;7.80;;
48524;SDS011;34316;51.514;-0.178;2022-08-25T03:08:23;18.92;;;8.98;;
48524;SDS011;34316;51.514;-0.178;2022-08-25T03:10:26;21.33;;;8.00;;
48524;SDS011;34316;51.514;-0.178;2022-08-25T03:12:28;14.80;;;7.68;;
48524;SDS011;34316;51.514;-0.178;2022-08-25T03:14:31;15.73;;;7.15;;
48524;SDS011;34316;51.514;-0.178;2022-08-25T03:16:33;22.58;;;8.02;;
48524;SDS011;34316;51.514;-0.178;2022-08-25T03:18:36;19.55;;;8.77;;
48524;SDS011;34316;51.514;-0.178;2022-08-25T03:20:40;18.38;;;7.93;;
48524;SDS011;34316;51.514;-0.178;2022-08-25T03:22:42;18.95;;;8.13;;
48524;SDS011;34316;51.514;-0.178;2022-08-25T03:24:44;25.33;;;8.15;;
48524;SDS011;34316;51.514;-0.178;2022-08-25T03:26:46;18.08;;;8.00;;
48524;SDS011;34316;51.514;-0.178;2022-08-25T03:28:54;13.95;;;7.55;;
48524;SDS011;34316;51.514;-0.178;2022-08-25T03:30:56;26.85;;;8.38;;
48524;SDS011;34316;51.514;-0.178;2022-08-25T03:33:00;19.05;;;8.38;;
48524;SDS011;34316;51.514;-0.178;2022-08-25T03:35:02;17.77;;;8.35;;
48524;SDS011;34316;51.514;-0.178;2022-08-25T03:37:05;20.48;;;8.40;;
48524;SDS011;34316;51.514;-0.178;2022-08-25T03:39:08;21.80;;;8.18;;
48524;SDS011;34316;51.514;-0.178;2022-08-25T03:43:16;15.52;;;7.95;;
48524;SDS011;34316;51.514;-0.178;2022-08-25T03:45:19;19.85;;;8.48;;
48524;SDS011;34316;51.514;-0.178;2022-08-25T03:47:21;18.92;;;7.95;;
48524;SDS011;34316;51.514;-0.178;2022-08-25T03:49:25;16.98;;;7.80;;
48524;SDS011;34316;51.514;-0.178;2022-08-25T03:51:32;21.08;;;8.38;;
48524;SDS011;34316;51.514;-0.178;2022-08-25T03:53:36;23.00;;;8.57;;
48524;SDS011;34316;51.514;-0.178;2022-08-25T03:55:40;25.50;;;9.02;;
48524;SDS011;34316;51.514;-0.178;2022-08-25T03:57:42;18.77;;;8.38;;
48524;SDS011;34316;51.514;-0.178;2022-08-25T03:59:45;20.15;;;8.88;;
48524;SDS011;34316;51.514;-0.178;2022-08-25T04:01:47;27.70;;;9.25;;
48524;SDS011;34316;51.514;-0.178;2022-08-25T04:03:55;20.40;;;8.77;;
48524;SDS011;34316;51.514;-0.178;2022-08-25T04:06:00;14.30;;;8.00;;
48524;SDS011;34316;51.514;-0.178;2022-08-25T04:08:03;18.17;;;8.80;;
48524;SDS011;34316;51.514;-0.178;2022-08-25T04:10:08;27.00;;;8.60;;
48524;SDS011;34316;51.514;-0.178;2022-08-25T04:12:11;19.17;;;8.10;;
48524;SDS011;34316;51.514;-0.178;2022-08-25T04:14:19;16.25;;;8.63;;
48524;SDS011;34316;51.514;-0.178;2022-08-25T04:16:23;17.23;;;8.27;;
48524;SDS011;34316;51.514;-0.178;2022-08-25T04:18:31;21.48;;;9.15;;
48524;SDS011;34316;51.514;-0.178;2022-08-25T04:20:34;18.33;;;9.02;;
48524;SDS011;34316;51.514;-0.178;2022-08-25T04:22:36;18.25;;;8.45;;
48524;SDS011;34316;51.514;-0.178;2022-08-25T04:24:45;16.65;;;8.95;;
48524;SDS011;34316;51.514;-0.178;2022-08-25T04:26:47;19.90;;;9.65;;
48524;SDS011;34316;51.514;-0.178;2022-08-25T04:28:51;23.25;;;9.57;;
48524;SDS011;34316;51.514;-0.178;2022-08-25T04:30:54;19.17;;;8.90;;
48524;SDS011;34316;51.514;-0.178;2022-08-25T04:32:59;23.65;;;10.15;;
48524;SDS011;34316;51.514;-0.178;2022-08-25T04:35:01;22.60;;;9.50;;
48524;SDS011;34316;51.514;-0.178;2022-08-25T04:37:03;16.88;;;8.95;;
48524;SDS011;34316;51.514;-0.178;2022-08-25T04:39:07;22.55;;;10.93;;
48524;SDS011;34316;51.514;-0.178;2022-08-25T04:41:12;20.13;;;9.18;;
48524;SDS011;34316;51.514;-0.178;2022-08-25T04:43:15;19.48;;;8.73;;
48524;SDS011;34316;51.514;-0.178;2022-08-25T04:45:30;18.42;;;9.35;;
48524;SDS011;34316;51.514;-0.178;2022-08-25T04:47:35;22.70;;;9.52;;
48524;SDS011;34316;51.514;-0.178;2022-08-25T04:49:38;19.65;;;9.23;;
48524;SDS011;34316;51.514;-0.178;2022-08-25T04:51:40;23.10;;;11.05;;
48524;SDS011;34316;51.514;-0.178;2022-08-25T04:53:43;17.02;;;9.73;;
48524;SDS011;34316;51.514;-0.178;2022-08-25T04:55:46;15.27;;;9.77;;
48524;SDS011;34316;51.514;-0.178;2022-08-25T04:57:48;21.63;;;10.82;;
48524;SDS011;34316;51.514;-0.178;2022-08-25T04:59:50;21.23;;;10.43;;
48524;SDS011;34316;51.514;-0.178;2022-08-25T05:01:53;25.08;;;10.75;;
48524;SDS011;34316;51.514;-0.178;2022-08-25T05:03:57;22.60;;;9.65;;
48524;SDS011;34316;51.514;-0.178;2022-08-25T05:06:00;22.45;;;9.98;;
48524;SDS011;34316;51.514;-0.178;2022-08-25T05:10:37;19.10;;;8.98;;
48524;SDS011;34316;51.514;-0.178;2022-08-25T05:12:42;24.00;;;10.15;;
48524;SDS011;34316;51.514;-0.178;2022-08-25T05:14:47;22.63;;;9.13;;
48524;SDS011;34316;51.514;-0.178;2022-08-25T05:16:56;17.75;;;9.05;;
48524;SDS011;34316;51.514;-0.178;2022-08-25T05:18:58;20.45;;;9.02;;
48524;SDS011;34316;51.514;-0.178;2022-08-25T05:21:03;20.98;;;9.32;;
48524;SDS011;34316;51.514;-0.178;2022-08-25T05:23:09;20.70;;;8.77;;
48524;SDS011;34316;51.514;-0.178;2022-08-25T05:25:11;19.45;;;9.88;;
48524;SDS011;34316;51.514;-0.178;2022-08-25T05:27:13;19.10;;;9.90;;
48524;SDS011;34316;51.514;-0.178;2022-08-25T05:29:15;24.42;;;9.00;;
48524;SDS011;34316;51.514;-0.178;2022-08-25T05:31:18;18.83;;;9.07;;
48524;SDS011;34316;51.514;-0.178;2022-08-25T05:33:21;18.08;;;8.88;;
48524;SDS011;34316;51.514;-0.178;2022-08-25T05:35:23;17.83;;;8.85;;
48524;SDS011;34316;51.514;-0.178;2022-08-25T05:37:25;19.35;;;9.35;;
48524;SDS011;34316;51.514;-0.178;2022-08-25T05:39:27;21.48;;;9.77;;
48524;SDS011;34316;51.514;-0.178;2022-08-25T05:41:32;27.85;;;9.63;;
48524;SDS011;34316;51.514;-0.178;2022-08-25T05:43:35;24.85;;;9.52;;
48524;SDS011;34316;51.514;-0.178;2022-08-25T05:45:38;25.58;;;9.88;;
48524;SDS011;34316;51.514;-0.178;2022-08-25T05:47:41;23.30;;;8.98;;
48524;SDS011;34316;51.514;-0.178;2022-08-25T05:49:43;18.25;;;8.50;;
48524;SDS011;34316;51.514;-0.178;2022-08-25T05:51:45;21.90;;;9.25;;
48524;SDS011;34316;51.514;-0.178;2022-08-25T05:53:48;19.25;;;8.73;;
48524;SDS011;34316;51.514;-0.178;2022-08-25T05:55:51;19.08;;;9.27;;
48524;SDS011;34316;51.514;-0.178;2022-08-25T05:57:54;22.63;;;9.57;;
48524;SDS011;34316;51.514;-0.178;2022-08-25T05:59:56;32.88;;;10.15;;
48524;SDS011;34316;51.514;-0.178;2022-08-25T06:01:58;20.90;;;9.98;;
48524;SDS011;34316;51.514;-0.178;2022-08-25T06:04:18;18.52;;;9.43;;
48524;SDS011;34316;51.514;-0.178;2022-08-25T06:06:22;19.10;;;8.85;;
48524;SDS011;34316;51.514;-0.178;2022-08-25T06:08:24;20.27;;;9.13;;
48524;SDS011;34316;51.514;-0.178;2022-08-25T06:10:30;23.80;;;8.57;;
48524;SDS011;34316;51.514;-0.178;2022-08-25T06:12:33;23.88;;;8.45;;
48524;SDS011;34316;51.514;-0.178;2022-08-25T06:14:43;21.42;;;8.90;;
48524;SDS011;34316;51.514;-0.178;2022-08-25T06:16:45;18.75;;;9.18;;
48524;SDS011;34316;51.514;-0.178;2022-08-25T06:18:50;16.60;;;8.52;;
48524;SDS011;34316;51.514;-0.178;2022-08-25T06:20:52;18.45;;;8.88;;
48524;SDS011;34316;51.514;-0.178;2022-08-25T06:22:54;19.48;;;9.55;;
48524;SDS011;34316;51.514;-0.178;2022-08-25T06:24:56;15.60;;;9.07;;
48524;SDS011;34316;51.514;-0.178;2022-08-25T06:26:58;24.52;;;9.80;;
48524;SDS011;34316;51.514;-0.178;2022-08-25T06:29:01;23.85;;;9.73;;
48524;SDS011;34316;51.514;-0.178;2022-08-25T06:31:03;17.85;;;9.55;;
48524;SDS011;34316;51.514;-0.178;2022-08-25T06:33:06;21.88;;;9.48;;
48524;SDS011;34316;51.514;-0.178;2022-08-25T06:35:09;18.52;;;8.90;;
48524;SDS011;34316;51.514;-0.178;2022-08-25T06:37:12;24.13;;;9.13;;
48524;SDS011;34316;51.514;-0.178;2022-08-25T06:39:14;16.77;;;9.25;;
48524;SDS011;34316;51.514;-0.178;2022-08-25T06:41:16;21.55;;;9.18;;
48524;SDS011;34316;51.514;-0.178;2022-08-25T06:43:19;21.10;;;9.57;;
48524;SDS011;34316;51.514;-0.178;2022-08-25T06:45:21;21.75;;;9.70;;
48524;SDS011;34316;51.514;-0.178;2022-08-25T06:47:23;14.90;;;8.55;;
48524;SDS011;34316;51.514;-0.178;2022-08-25T06:49:25;23.17;;;10.05;;
48524;SDS011;34316;51.514;-0.178;2022-08-25T06:51:34;23.05;;;9.93;;
48524;SDS011;34316;51.514;-0.178;2022-08-25T06:53:36;20.88;;;9.50;;
48524;SDS011;34316;51.514;-0.178;2022-08-25T06:55:39;16.38;;;8.90;;
48524;SDS011;34316;51.514;-0.178;2022-08-25T06:57:41;16.77;;;9.10;;
48524;SDS011;34316;51.514;-0.178;2022-08-25T06:59:42;24.50;;;9.27;;
48524;SDS011;34316;51.514;-0.178;2022-08-25T07:01:44;18.27;;;8.85;;
48524;SDS011;34316;51.514;-0.178;2022-08-25T07:03:49;19.35;;;9.30;;
48524;SDS011;34316;51.514;-0.178;2022-08-25T07:05:53;21.35;;;9.15;;
48524;SDS011;34316;51.514;-0.178;2022-08-25T07:07:56;17.35;;;9.52;;
48524;SDS011;34316;51.514;-0.178;2022-08-25T07:09:59;17.00;;;8.77;;
48524;SDS011;34316;51.514;-0.178;2022-08-25T07:12:01;16.17;;;9.13;;
48524;SDS011;34316;51.514;-0.178;2022-08-25T07:16:07;19.30;;;9.13;;
48524;SDS011;34316;51.514;-0.178;2022-08-25T07:18:11;15.15;;;9.13;;
48524;SDS011;34316;51.514;-0.178;2022-08-25T07:20:13;17.23;;;9.45;;
48524;SDS011;34316;51.514;-0.178;2022-08-25T07:22:16;13.90;;;8.38;;
48524;SDS011;34316;51.514;-0.178;2022-08-25T07:24:18;23.02;;;8.98;;
48524;SDS011;34316;51.514;-0.178;2022-08-25T07:26:21;17.38;;;7.95;;
48524;SDS011;34316;51.514;-0.178;2022-08-25T07:28:39;15.38;;;7.75;;
48524;SDS011;34316;51.514;-0.178;2022-08-25T07:30:48;23.83;;;8.23;;
48524;SDS011;34316;51.514;-0.178;2022-08-25T07:32:52;22.25;;;7.78;;
48524;SDS011;34316;51.514;-0.178;2022-08-25T07:34:55;17.30;;;7.55;;
48524;SDS011;34316;51.514;-0.178;2022-08-25T07:37:19;17.00;;;7.43;;
48524;SDS011;34316;51.514;-0.178;2022-08-25T07:39:43;20.90;;;7.22;;
48524;SDS011;34316;51.514;-0.178;2022-08-25T07:41:45;14.77;;;7.30;;
48524;SDS011;34316;51.514;-0.178;2022-08-25T07:43:51;20.15;;;7.97;;
48524;SDS011;34316;51.514;-0.178;2022-08-25T07:45:53;25.88;;;8.82;;
48524;SDS011;34316;51.514;-0.178;2022-08-25T07:47:56;21.58;;;7.72;;
48524;SDS011;34316;51.514;-0.178;2022-08-25T07:50:00;18.40;;;7.72;;
48524;SDS011;34316;51.514;-0.178;2022-08-25T07:52:05;20.80;;;7.78;;
48524;SDS011;34316;51.514;-0.178;2022-08-25T07:54:09;23.05;;;7.43;;
48524;SDS011;34316;51.514;-0.178;2022-08-25T07:56:12;19.07;;;8.30;;
48524;SDS011;34316;51.514;-0.178;2022-08-25T07:58:16;21.38;;;8.75;;
48524;SDS011;34316;51.514;-0.178;2022-08-25T08:00:18;20.10;;;7.82;;
48524;SDS011;34316;51.514;-0.178;2022-08-25T08:02:20;18.60;;;7.82;;
48524;SDS011;34316;51.514;-0.178;2022-08-25T08:04:25;23.92;;;8.20;;
48524;SDS011;34316;51.514;-0.178;2022-08-25T08:08:30;15.50;;;7.75;;
48524;SDS011;34316;51.514;-0.178;2022-08-25T08:10:32;14.48;;;6.80;;
48524;SDS011;34316;51.514;-0.178;2022-08-25T08:12:54;21.02;;;7.90;;
48524;SDS011;34316;51.514;-0.178;2022-08-25T08:14:57;29.77;;;8.52;;
48524;SDS011;34316;51.514;-0.178;2022-08-25T08:17:03;19.50;;;7.53;;
48524;SDS011;34316;51.514;-0.178;2022-08-25T08:19:07;21.27;;;7.93;;
48524;SDS011;34316;51.514;-0.178;2022-08-25T08:21:10;19.92;;;8.15;;
48524;SDS011;34316;51.514;-0.178;2022-08-25T08:23:23;21.88;;;7.20;;
48524;SDS011;34316;51.514;-0.178;2022-08-25T08:25:28;22.27;;;7.55;;
48524;SDS011;34316;51.514;-0.178;2022-08-25T08:27:31;18.60;;;7.75;;
48524;SDS011;34316;51.514;-0.178;2022-08-25T08:29:35;19.73;;;7.75;;
48524;SDS011;34316;51.514;-0.178;2022-08-25T08:31:38;22.00;;;7.05;;
48524;SDS011;34316;51.514;-0.178;2022-08-25T08:33:49;25.33;;;7.22;;
48524;SDS011;34316;51.514;-0.178;2022-08-25T08:35:55;21.38;;;7.43;;
48524;SDS011;34316;51.514;-0.178;2022-08-25T08:38:05;24.85;;;6.95;;
48524;SDS011;34316;51.514;-0.178;2022-08-25T08:40:18;23.70;;;7.63;;
48524;SDS011;34316;51.514;-0.178;2022-08-25T08:45:10;26.52;;;7.75;;
48524;SDS011;34316;51.514;-0.178;2022-08-25T08:47:27;28.63;;;7.07;;
48524;SDS011;34316;51.514;-0.178;2022-08-25T08:49:48;25.83;;;7.32;;
48524;SDS011;34316;51.514;-0.178;2022-08-25T08:51:58;36.40;;;7.88;;
48524;SDS011;34316;51.514;-0.178;2022-08-25T08:56:19;20.38;;;6.75;;
48524;SDS011;34316;51.514;-0.178;2022-08-25T09:00:39;24.02;;;6.95;;
48524;SDS011;34316;51.514;-0.178;2022-08-25T09:02:55;25.02;;;6.35;;
48524;SDS011;34316;51.514;-0.178;2022-08-25T09:05:07;25.40;;;6.93;;
48524;SDS011;34316;51.514;-0.178;2022-08-25T09:07:13;23.40;;;7.60;;
48524;SDS011;34316;51.514;-0.178;2022-08-25T09:09:25;25.83;;;6.53;;
48524;SDS011;34316;51.514;-0.178;2022-08-25T09:21:07;22.10;;;6.65;;
48524;SDS011;34316;51.514;-0.178;2022-08-25T09:23:27;24.00;;;6.93;;
48524;SDS011;34316;51.514;-0.178;2022-08-25T09:30:13;29.00;;;7.90;;
48524;SDS011;34316;51.514;-0.178;2022-08-25T09:32:16;24.42;;;6.38;;
48524;SDS011;34316;51.514;-0.178;2022-08-25T09:34:27;25.77;;;5.95;;
48524;SDS011;34316;51.514;-0.178;2022-08-25T09:36:32;28.80;;;5.75;;
48524;SDS011;34316;51.514;-0.178;2022-08-25T09:38:38;23.75;;;6.47;;
48524;SDS011;34316;51.514;-0.178;2022-08-25T09:40:42;25.17;;;6.33;;
48524;SDS011;34316;51.514;-0.178;2022-08-25T09:42:48;21.92;;;6.38;;
48524;SDS011;34316;51.514;-0.178;2022-08-25T09:44:58;28.25;;;6.70;;
48524;SDS011;34316;51.514;-0.178;2022-08-25T09:47:05;31.60;;;7.03;;
48524;SDS011;34316;51.514;-0.178;2022-08-25T09:49:14;20.17;;;6.75;;
48524;SDS011;34316;51.514;-0.178;2022-08-25T09:51:27;23.85;;;6.65;;
48524;SDS011;34316;51.514;-0.178;2022-08-25T09:53:41;19.90;;;5.53;;
48524;SDS011;34316;51.514;-0.178;2022-08-25T09:56:01;23.60;;;6.28;;
48524;SDS011;34316;51.514;-0.178;2022-08-25T09:58:26;22.95;;;5.53;;
48524;SDS011;34316;51.514;-0.178;2022-08-25T10:00:29;31.13;;;6.70;;
48524;SDS011;34316;51.514;-0.178;2022-08-25T10:02:37;23.25;;;5.50;;
48524;SDS011;34316;51.514;-0.178;2022-08-25T10:04:39;30.08;;;5.38;;
48524;SDS011;34316;51.514;-0.178;2022-08-25T10:06:42;26.15;;;4.97;;
48524;SDS011;34316;51.514;-0.178;2022-08-25T10:10:52;22.83;;;4.90;;
48524;SDS011;34316;51.514;-0.178;2022-08-25T10:12:55;26.13;;;5.15;;
48524;SDS011;34316;51.514;-0.178;2022-08-25T10:15:17;28.58;;;5.43;;
48524;SDS011;34316;51.514;-0.178;2022-08-25T10:17:31;23.80;;;4.90;;
48524;SDS011;34316;51.514;-0.178;2022-08-25T10:19:33;24.65;;;5.40;;
48524;SDS011;34316;51.514;-0.178;2022-08-25T10:21:38;33.70;;;5.38;;
48524;SDS011;34316;51.514;-0.178;2022-08-25T10:23:46;31.85;;;4.88;;
48524;SDS011;34316;51.514;-0.178;2022-08-25T10:25:51;25.02;;;5.35;;
48524;SDS011;34316;51.514;-0.178;2022-08-25T10:28:08;18.60;;;4.60;;
48524;SDS011;34316;51.514;-0.178;2022-08-25T10:30:16;26.42;;;4.90;;
48524;SDS011;34316;51.514;-0.178;2022-08-25T10:34:57;30.90;;;4.40;;
48524;SDS011;34316;51.514;-0.178;2022-08-25T10:37:10;20.33;;;4.43;;
48524;SDS011;34316;51.514;-0.178;2022-08-25T10:39:23;26.88;;;4.63;;
48524;SDS011;34316;51.514;-0.178;2022-08-25T10:43:46;26.90;;;4.30;;
48524;SDS011;34316;51.514;-0.178;2022-08-25T10:45:59;29.85;;;4.55;;
48524;SDS011;34316;51.514;-0.178;2022-08-25T10:50:46;19.50;;;4.35;;
48524;SDS011;34316;51.514;-0.178;2022-08-25T10:55:23;22.08;;;4.20;;
48524;SDS011;34316;51.514;-0.178;2022-08-25T10:57:41;20.30;;;3.95;;
48524;SDS011;34316;51.514;-0.178;2022-08-25T10:59:59;28.95;;;4.68;;
48524;SDS011;34316;51.514;-0.178;2022-08-25T11:06:59;25.55;;;5.15;;
48524;SDS011;34316;51.514;-0.178;2022-08-25T11:09:12;26.08;;;5.18;;
48524;SDS011;34316;51.514;-0.178;2022-08-25T11:11:27;29.08;;;4.70;;
48524;SDS011;34316;51.514;-0.178;2022-08-25T11:16:00;19.07;;;4.90;;
48524;SDS011;34316;51.514;-0.178;2022-08-25T11:18:18;22.42;;;4.90;;
48524;SDS011;34316;51.514;-0.178;2022-08-25T11:20:22;28.00;;;5.00;;
48524;SDS011;34316;51.514;-0.178;2022-08-25T11:22:41;25.48;;;4.50;;
48524;SDS011;34316;51.514;-0.178;2022-08-25T11:25:33;21.38;;;5.15;;
48524;SDS011;34316;51.514;-0.178;2022-08-25T11:27:10;22.48;;;4.82;;
48524;SDS011;34316;51.514;-0.178;2022-08-25T11:29:23;17.98;;;4.75;;
48524;SDS011;34316;51.514;-0.178;2022-08-25T11:31:27;22.55;;;4.40;;
48524;SDS011;34316;51.514;-0.178;2022-08-25T11:33:29;22.88;;;4.32;;
48524;SDS011;34316;51.514;-0.178;2022-08-25T11:37:42;20.58;;;4.80;;
48524;SDS011;34316;51.514;-0.178;2022-08-25T11:42:57;12.30;;;3.22;;
48524;SDS011;34316;51.514;-0.178;2022-08-25T11:45:05;21.58;;;4.88;;
48524;SDS011;34316;51.514;-0.178;2022-08-25T11:51:52;20.00;;;3.92;;
48524;SDS011;34316;51.514;-0.178;2022-08-25T11:56:25;21.20;;;4.43;;
48524;SDS011;34316;51.514;-0.178;2022-08-25T12:00:41;16.10;;;4.57;;
48524;SDS011;34316;51.514;-0.178;2022-08-25T12:02:48;20.25;;;4.63;;
48524;SDS011;34316;51.514;-0.178;2022-08-25T12:04:51;20.55;;;4.55;;
48524;SDS011;34316;51.514;-0.178;2022-08-25T12:11:23;14.82;;;4.25;;
48524;SDS011;34316;51.514;-0.178;2022-08-25T12:13:41;20.65;;;3.80;;
48524;SDS011;34316;51.514;-0.178;2022-08-25T12:20:12;20.60;;;4.25;;
48524;SDS011;34316;51.514;-0.178;2022-08-25T12:24:17;16.95;;;4.63;;
48524;SDS011;34316;51.514;-0.178;2022-08-25T12:31:14;17.08;;;3.88;;
48524;SDS011;34316;51.514;-0.178;2022-08-25T12:38:09;17.88;;;3.67;;
48524;SDS011;34316;51.514;-0.178;2022-08-25T12:40:19;23.20;;;4.30;;
48524;SDS011;34316;51.514;-0.178;2022-08-25T12:42:31;16.67;;;4.32;;
48524;SDS011;34316;51.514;-0.178;2022-08-25T12:44:45;19.90;;;4.20;;
48524;SDS011;34316;51.514;-0.178;2022-08-25T12:46:50;12.43;;;3.47;;
48524;SDS011;34316;51.514;-0.178;2022-08-25T12:49:11;15.95;;;4.10;;
48524;SDS011;34316;51.514;-0.178;2022-08-25T12:51:17;19.90;;;3.92;;
48524;SDS011;34316;51.514;-0.178;2022-08-25T12:53:40;14.10;;;3.90;;
48524;SDS011;34316;51.514;-0.178;2022-08-25T12:55:55;16.52;;;4.03;;
48524;SDS011;34316;51.514;-0.178;2022-08-25T12:58:00;16.13;;;4.15;;
48524;SDS011;34316;51.514;-0.178;2022-08-25T13:00:08;11.80;;;3.47;;
48524;SDS011;34316;51.514;-0.178;2022-08-25T13:04:41;16.58;;;3.85;;
48524;SDS011;34316;51.514;-0.178;2022-08-25T13:13:46;16.83;;;4.18;;
48524;SDS011;34316;51.514;-0.178;2022-08-25T13:15:57;17.13;;;4.43;;
48524;SDS011;34316;51.514;-0.178;2022-08-25T13:18:17;19.92;;;4.05;;
48524;SDS011;34316;51.514;-0.178;2022-08-25T13:20:25;24.75;;;4.90;;
48524;SDS011;34316;51.514;-0.178;2022-08-25T13:22:30;14.13;;;4.05;;
48524;SDS011;34316;51.514;-0.178;2022-08-25T13:24:34;15.13;;;4.65;;
48524;SDS011;34316;51.514;-0.178;2022-08-25T13:26:41;14.48;;;3.55;;
48524;SDS011;34316;51.514;-0.178;2022-08-25T13:28:50;23.85;;;5.07;;
48524;SDS011;34316;51.514;-0.178;2022-08-25T13:31:06;18.52;;;3.60;;
48524;SDS011;34316;51.514;-0.178;2022-08-25T13:33:17;18.42;;;3.78;;
48524;SDS011;34316;51.514;-0.178;2022-08-25T13:35:29;22.42;;;4.47;;
48524;SDS011;34316;51.514;-0.178;2022-08-25T13:37:33;17.98;;;4.22;;
48524;SDS011;34316;51.514;-0.178;2022-08-25T13:39:35;21.30;;;4.70;;
48524;SDS011;34316;51.514;-0.178;2022-08-25T13:41:56;18.30;;;4.13;;
48524;SDS011;34316;51.514;-0.178;2022-08-25T13:44:04;15.57;;;3.72;;
48524;SDS011;34316;51.514;-0.178;2022-08-25T13:46:17;11.60;;;3.72;;
48524;SDS011;34316;51.514;-0.178;2022-08-25T13:48:33;20.67;;;4.68;;
48524;SDS011;34316;51.514;-0.178;2022-08-25T13:50:50;19.90;;;4.20;;
48524;SDS011;34316;51.514;-0.178;2022-08-25T13:53:12;19.05;;;4.35;;
48524;SDS011;34316;51.514;-0.178;2022-08-25T13:55:21;29.20;;;4.10;;
48524;SDS011;34316;51.514;-0.178;2022-08-25T13:57:28;20.48;;;3.88;;
48524;SDS011;34316;51.514;-0.178;2022-08-25T13:59:35;25.35;;;4.35;;
48524;SDS011;34316;51.514;-0.178;2022-08-25T14:01:44;21.30;;;4.00;;